createdAt,value
2022-08-07T00:02:41.057Z,17.00
2022-08-07T00:06:20.472Z,16.90
2022-08-07T00:10:26.435Z,16.90
2022-08-07T00:14:09.587Z,16.90
2022-08-07T00:17:55.059Z,16.90
2022-08-07T00:21:57.307Z,16.80
2022-08-07T00:25:41.572Z,16.70
2022-08-07T00:29:31.279Z,16.70
2022-08-07T00:33:14.280Z,16.60
2022-08-07T00:36:57.249Z,16.50
2022-08-07T00:40:40.774Z,16.40
2022-08-07T00:44:22.748Z,16.40
2022-08-07T00:48:18.630Z,16.40
2022-08-07T00:52:08.683Z,16.40
2022-08-07T00:56:03.325Z,16.30
2022-08-07T00:59:46.041Z,16.20
2022-08-07T01:03:55.709Z,16.20
2022-08-07T01:07:32.988Z,16.20
2022-08-07T01:12:09.225Z,16.10
2022-08-07T01:15:19.493Z,16.10
2022-08-07T01:19:01.476Z,16.00
2022-08-07T01:23:00.478Z,16.00
2022-08-07T01:26:51.883Z,15.90
2022-08-07T01:30:38.436Z,15.90
2022-08-07T01:34:24.010Z,15.80
2022-08-07T01:38:12.879Z,15.80
2022-08-07T01:42:38.250Z,15.80
2022-08-07T01:46:12.247Z,15.70
2022-08-07T01:49:54.851Z,15.70
2022-08-07T01:54:08.583Z,15.60
2022-08-07T01:58:01.179Z,15.60
2022-08-07T02:02:00.089Z,15.50
2022-08-07T02:05:59.278Z,15.50
2022-08-07T02:09:52.852Z,15.40
2022-08-07T02:13:57.533Z,15.40
2022-08-07T02:17:49.736Z,15.40
2022-08-07T02:21:56.372Z,15.40
2022-08-07T02:26:31.116Z,15.30
2022-08-07T02:29:48.738Z,15.30
2022-08-07T02:33:57.504Z,15.30
2022-08-07T02:37:44.015Z,15.30
2022-08-07T02:41:33.150Z,15.20
2022-08-07T02:45:58.511Z,15.20
2022-08-07T02:49:56.269Z,15.10
2022-08-07T02:53:28.126Z,15.00
2022-08-07T02:57:14.295Z,15.00
2022-08-07T03:00:58.203Z,15.00
2022-08-07T03:04:42.981Z,14.90
2022-08-07T03:08:29.340Z,14.90
2022-08-07T03:12:21.836Z,14.90
2022-08-07T03:16:05.062Z,14.90
2022-08-07T03:19:52.912Z,15.00
2022-08-07T03:24:21.159Z,15.00
2022-08-07T03:28:09.045Z,15.00
2022-08-07T03:31:49.851Z,15.00
2022-08-07T03:35:43.576Z,15.00
2022-08-07T03:39:45.930Z,15.00
2022-08-07T03:43:32.232Z,15.00
2022-08-07T03:47:15.583Z,14.90
2022-08-07T03:50:58.122Z,14.90
2022-08-07T03:54:54.954Z,14.90
2022-08-07T03:59:09.242Z,14.90
2022-08-07T04:02:43.198Z,14.90
2022-08-07T04:06:37.633Z,14.90
2022-08-07T04:10:20.807Z,14.80
2022-08-07T04:14:10.456Z,14.80
2022-08-07T04:18:57.225Z,14.70
2022-08-07T04:22:17.302Z,14.70
2022-08-07T04:25:59.889Z,14.70
2022-08-07T04:29:58.567Z,14.70
2022-08-07T04:33:46.198Z,14.70
2022-08-07T04:37:40.441Z,14.70
2022-08-07T04:41:30.113Z,14.70
2022-08-07T04:45:44.411Z,14.60
2022-08-07T04:49:39.644Z,14.50
2022-08-07T04:54:05.323Z,14.40
2022-08-07T04:58:09.702Z,14.30
2022-08-07T05:02:16.951Z,14.20
2022-08-07T05:06:16.390Z,14.20
2022-08-07T05:10:45.537Z,14.10
2022-08-07T05:14:52.323Z,14.10
2022-08-07T05:18:56.948Z,14.10
2022-08-07T05:22:41.240Z,14.20
2022-08-07T05:26:25.990Z,14.10
2022-08-07T05:30:09.239Z,14.10
2022-08-07T05:34:04.539Z,14.20
2022-08-07T05:37:48.271Z,14.60
2022-08-07T05:42:01.664Z,15.00
2022-08-07T05:45:48.358Z,15.40
2022-08-07T05:49:40.659Z,15.80
2022-08-07T05:54:12.052Z,16.20
2022-08-07T05:57:29.964Z,16.60
2022-08-07T06:01:14.375Z,17.00
2022-08-07T06:05:03.621Z,17.30
2022-08-07T06:08:46.821Z,17.60
2022-08-07T06:12:32.956Z,17.80
2022-08-07T06:16:16.475Z,18.10
2022-08-07T06:20:03.778Z,18.30
2022-08-07T06:24:48.190Z,18.60
2022-08-07T06:28:01.061Z,18.70
2022-08-07T06:31:49.435Z,18.90
2022-08-07T06:35:45.754Z,19.10
2022-08-07T06:40:12.831Z,19.40
2022-08-07T06:43:39.409Z,19.60
2022-08-07T06:47:22.526Z,19.90
2022-08-07T06:51:08.389Z,20.20
2022-08-07T06:55:31.288Z,20.30
2022-08-07T07:00:14.270Z,20.40
2022-08-07T07:03:01.358Z,20.50
2022-08-07T07:07:00.614Z,20.60
2022-08-07T07:10:47.499Z,20.80
2022-08-07T07:15:24.055Z,21.00
2022-08-07T07:19:56.578Z,21.10
2022-08-07T07:24:09.834Z,21.20
2022-08-07T07:27:18.535Z,21.20
2022-08-07T07:31:08.165Z,21.30
2022-08-07T07:35:00.505Z,21.50
2022-08-07T07:38:47.605Z,21.70
2022-08-07T07:42:33.400Z,21.80
2022-08-07T07:46:40.020Z,21.80
2022-08-07T07:50:33.285Z,21.90
2022-08-07T07:54:21.008Z,21.90
2022-08-07T07:58:05.039Z,21.80
2022-08-07T08:02:02.667Z,21.90
2022-08-07T08:05:54.803Z,22.00
2022-08-07T08:09:52.596Z,22.10
2022-08-07T08:13:53.950Z,22.20
2022-08-07T08:17:58.059Z,22.30
2022-08-07T08:22:03.618Z,22.50
2022-08-07T08:26:08.385Z,22.60
2022-08-07T08:30:02.983Z,22.50
2022-08-07T08:33:49.782Z,22.50
2022-08-07T08:38:00.697Z,22.50
2022-08-07T08:42:05.160Z,22.60
2022-08-07T08:46:21.995Z,22.60
2022-08-07T08:50:35.363Z,22.70
2022-08-07T08:54:32.364Z,22.90
2022-08-07T08:58:24.734Z,23.00
2022-08-07T09:02:37.568Z,23.10
2022-08-07T09:06:48.336Z,23.10
2022-08-07T09:10:46.845Z,23.20
2022-08-07T09:14:50.755Z,23.20
2022-08-07T09:19:52.654Z,23.20
2022-08-07T09:24:32.048Z,23.10
2022-08-07T09:28:03.873Z,23.20
2022-08-07T09:31:56.436Z,23.30
2022-08-07T09:36:05.467Z,23.10
2022-08-07T09:39:57.699Z,22.90
2022-08-07T09:44:06.602Z,22.80
2022-08-07T09:48:25.160Z,22.70
2022-08-07T09:52:34.976Z,22.60
2022-08-07T09:56:37.227Z,22.50
2022-08-07T10:00:30.013Z,22.40
2022-08-07T10:05:12.503Z,22.30
2022-08-07T10:09:42.579Z,22.20
2022-08-07T10:14:01.837Z,22.20
2022-08-07T10:18:00.961Z,22.20
2022-08-07T10:22:33.876Z,22.20
2022-08-07T10:26:44.170Z,22.20
2022-08-07T10:30:50.377Z,22.20
2022-08-07T10:34:41.393Z,22.20
2022-08-07T10:38:47.955Z,22.20
2022-08-07T10:42:50.011Z,22.20
2022-08-07T10:46:43.289Z,22.20
2022-08-07T10:50:33.407Z,22.20
2022-08-07T10:54:18.642Z,22.20
2022-08-07T10:58:10.237Z,22.20
2022-08-07T11:02:34.330Z,22.30
2022-08-07T11:06:26.863Z,22.30
2022-08-07T11:10:33.757Z,22.40
2022-08-07T11:14:45.196Z,22.50
2022-08-07T11:18:50.850Z,22.50
2022-08-07T11:23:02.623Z,22.50
2022-08-07T11:26:50.567Z,22.40
2022-08-07T11:30:44.219Z,22.40
2022-08-07T11:34:48.942Z,22.40
2022-08-07T11:39:08.506Z,22.50
2022-08-07T11:43:08.868Z,22.50
2022-08-07T11:47:19.995Z,22.60
2022-08-07T11:51:41.399Z,22.60
2022-08-07T11:56:25.759Z,22.60
2022-08-07T12:00:19.338Z,22.70
2022-08-07T12:04:59.508Z,22.70
2022-08-07T12:08:58.586Z,22.70
2022-08-07T12:12:53.174Z,22.80
2022-08-07T12:16:46.793Z,22.80
2022-08-07T12:20:46.241Z,22.90
2022-08-07T12:25:17.857Z,22.90
2022-08-07T12:29:41.463Z,22.90
2022-08-07T12:33:46.278Z,23.00
2022-08-07T12:38:10.353Z,23.00
2022-08-07T12:41:49.405Z,23.10
2022-08-07T12:45:59.980Z,23.20
2022-08-07T12:50:04.377Z,23.20
2022-08-07T12:54:37.340Z,23.30
2022-08-07T12:58:13.006Z,23.30
2022-08-07T13:02:13.198Z,23.40
2022-08-07T13:06:22.029Z,23.40
2022-08-07T13:10:28.620Z,23.50
2022-08-07T13:14:59.107Z,23.50
2022-08-07T13:19:02.655Z,23.50
2022-08-07T13:22:56.509Z,23.50
2022-08-07T13:26:54.071Z,23.60
2022-08-07T13:30:44.159Z,23.60
2022-08-07T13:35:00.262Z,23.60
2022-08-07T13:38:59.852Z,23.70
2022-08-07T13:42:45.937Z,23.70
2022-08-07T13:46:48.892Z,23.70
2022-08-07T13:51:00.177Z,23.70
2022-08-07T13:54:40.637Z,23.70
2022-08-07T13:58:58.115Z,23.70
2022-08-07T14:02:51.037Z,23.70
2022-08-07T14:06:40.001Z,23.80
2022-08-07T14:10:28.411Z,23.80
2022-08-07T14:14:15.726Z,23.90
2022-08-07T14:18:23.662Z,23.90
2022-08-07T14:22:12.402Z,23.90
2022-08-07T14:26:01.911Z,23.80
2022-08-07T14:30:07.804Z,23.80
2022-08-07T14:33:54.319Z,23.90
2022-08-07T14:37:43.185Z,23.90
2022-08-07T14:42:19.720Z,23.90
2022-08-07T14:45:55.343Z,24.00
2022-08-07T14:49:56.836Z,24.00
2022-08-07T14:54:05.486Z,24.10
2022-08-07T14:57:55.260Z,24.10
2022-08-07T15:01:51.095Z,24.10
2022-08-07T15:05:35.018Z,24.10
2022-08-07T15:10:00.764Z,24.20
2022-08-07T15:14:00.319Z,24.20
2022-08-07T15:17:58.397Z,24.20
2022-08-07T15:22:04.430Z,24.20
2022-08-07T15:25:52.102Z,24.30
2022-08-07T15:30:10.334Z,24.30
2022-08-07T15:33:42.984Z,24.30
2022-08-07T15:38:17.214Z,24.30
2022-08-07T15:46:32.360Z,24.30
2022-08-07T15:54:27.439Z,24.30
2022-08-07T15:58:20.673Z,24.30
2022-08-07T16:02:05.142Z,24.20
2022-08-07T16:05:50.302Z,24.20
2022-08-07T16:09:56.871Z,24.20
2022-08-07T16:14:03.962Z,24.20
2022-08-07T16:18:49.479Z,24.20
2022-08-07T16:22:37.797Z,24.20
2022-08-07T16:27:00.036Z,24.20
2022-08-07T16:31:57.374Z,24.20
2022-08-07T16:35:59.049Z,24.10
2022-08-07T16:40:28.408Z,24.10
2022-08-07T16:45:04.032Z,24.10
2022-08-07T16:50:29.198Z,24.10
2022-08-07T16:53:57.229Z,24.20
2022-08-07T16:58:01.863Z,24.20
2022-08-07T17:02:08.907Z,24.10
2022-08-07T17:06:30.074Z,24.10
2022-08-07T17:10:32.249Z,24.10
2022-08-07T17:14:32.430Z,24.10
2022-08-07T17:18:53.651Z,24.10
2022-08-07T17:23:00.707Z,24.10
2022-08-07T17:27:19.874Z,24.10
2022-08-07T17:31:16.327Z,24.10
2022-08-07T17:35:50.061Z,24.10
2022-08-07T17:39:57.616Z,24.10
2022-08-07T17:44:03.221Z,24.10
2022-08-07T17:47:59.728Z,24.10
2022-08-07T17:52:00.377Z,24.10
2022-08-07T17:56:25.920Z,24.10
2022-08-07T18:00:27.425Z,24.00
2022-08-07T18:04:37.514Z,24.00
2022-08-07T18:08:24.515Z,24.00
2022-08-07T18:12:30.221Z,24.00
2022-08-07T18:16:32.975Z,24.00
2022-08-07T18:21:06.352Z,23.90
2022-08-07T18:24:40.211Z,23.90
2022-08-07T18:28:35.413Z,23.80
2022-08-07T18:32:38.175Z,23.90
2022-08-07T18:36:40.298Z,23.80
2022-08-07T18:40:42.517Z,23.70
2022-08-07T18:45:43.783Z,23.70
2022-08-07T18:50:31.920Z,23.60
2022-08-07T18:53:36.979Z,23.60
2022-08-07T18:58:15.098Z,23.60
2022-08-07T19:02:32.725Z,23.50
2022-08-07T19:06:34.010Z,23.40
2022-08-07T19:10:32.044Z,23.40
2022-08-07T19:15:00.546Z,23.30
2022-08-07T19:19:02.478Z,23.20
2022-08-07T19:23:03.157Z,23.20
2022-08-07T19:28:57.421Z,23.20
2022-08-07T19:31:59.692Z,23.00
2022-08-07T19:35:33.760Z,23.00
2022-08-07T19:39:40.421Z,22.90
2022-08-07T19:43:45.660Z,22.80
2022-08-07T19:47:36.378Z,22.80
2022-08-07T19:51:51.044Z,22.70
2022-08-07T19:55:24.193Z,22.60
2022-08-07T19:59:17.527Z,22.50
2022-08-07T20:03:32.739Z,22.50
2022-08-07T20:07:11.130Z,22.40
2022-08-07T20:11:01.860Z,22.30
2022-08-07T20:14:54.096Z,22.20
2022-08-07T20:18:43.457Z,22.20
2022-08-07T20:22:34.347Z,22.10
2022-08-07T20:26:20.414Z,22.00
2022-08-07T20:30:12.522Z,22.00
2022-08-07T20:34:07.143Z,21.90
2022-08-07T20:37:59.159Z,21.90
2022-08-07T20:41:48.266Z,21.80
2022-08-07T20:46:26.188Z,21.70
2022-08-07T20:49:59.019Z,21.60
2022-08-07T20:54:02.881Z,21.60
2022-08-07T20:58:11.796Z,21.50
2022-08-07T21:02:02.092Z,21.40
2022-08-07T21:05:56.322Z,21.40
2022-08-07T21:09:53.093Z,21.30
2022-08-07T21:14:16.868Z,21.30
2022-08-07T21:18:03.403Z,21.20
2022-08-07T21:22:02.977Z,21.10
2022-08-07T21:26:07.418Z,21.10
2022-08-07T21:30:01.316Z,21.00
2022-08-07T21:34:02.986Z,21.00
2022-08-07T21:38:08.837Z,20.90
2022-08-07T21:46:32.143Z,20.80
2022-08-07T21:50:25.407Z,20.70
2022-08-07T21:54:30.513Z,20.70
2022-08-07T21:58:57.306Z,20.60
2022-08-07T22:02:50.277Z,20.60
2022-08-07T22:06:45.239Z,20.50
2022-08-07T22:10:35.615Z,20.50
2022-08-07T22:14:34.563Z,20.40
2022-08-07T22:18:32.962Z,20.40
2022-08-07T22:22:29.065Z,20.30
2022-08-07T22:26:13.765Z,20.30
2022-08-07T22:30:12.764Z,20.20
2022-08-07T22:34:01.315Z,20.10
2022-08-07T22:38:08.076Z,20.10
2022-08-07T22:42:03.599Z,20.00
2022-08-07T22:47:02.243Z,20.00
2022-08-07T22:50:56.082Z,20.00
2022-08-07T22:54:49.277Z,19.80
2022-08-07T22:58:55.556Z,19.70
2022-08-07T23:03:11.058Z,19.60
2022-08-07T23:07:42.013Z,19.50
2022-08-07T23:11:46.158Z,19.40
2022-08-07T23:16:05.548Z,19.30
2022-08-07T23:20:52.319Z,19.20
2022-08-07T23:25:00.617Z,19.10
2022-08-07T23:29:43.343Z,19.10
2022-08-07T23:34:22.731Z,19.00
2022-08-07T23:38:19.299Z,18.90
2022-08-07T23:42:49.759Z,18.90
2022-08-07T23:46:44.408Z,18.80
2022-08-07T23:50:39.163Z,18.70
2022-08-07T23:54:59.475Z,18.60
